Time;durP1;ratioP1;P1;durP2;ratioP2;P2;SDS_P1;SDS_P2;PMS_P1;PMS_P2;Temp;Humidity;BMP_temperature;BMP_pressure;BME280_temperature;BME280_humidity;BME280_pressure;Samples;Min_cycle;Max_cycle;Signal;HPM_P1;HPM_P2
2023/04/10 00:00:48;;;;;;;47.97;19.00;;;;;;;5.05;99.71;101835.75;6072734;28;20041;-71
2023/04/10 00:03:43;;;;;;;53.10;19.75;;;;;;;5.11;99.65;101845.09;6067487;28;20060;-71
2023/04/10 00:06:40;;;;;;;55.47;19.60;;;;;;;5.03;99.33;101845.47;6073080;28;20037;-70
2023/04/10 00:09:35;;;;;;;51.70;19.10;;;;;;;5.08;99.18;101863.66;6071665;28;20098;-71
2023/04/10 00:12:31;;;;;;;51.13;18.20;;;;;;;4.87;98.67;101833.25;6073206;28;20478;-71
2023/04/10 00:15:27;;;;;;;52.97;18.77;;;;;;;4.98;99.20;101852.75;6073610;28;20264;-73
2023/04/10 00:18:22;;;;;;;52.35;18.50;;;;;;;5.20;100.00;101866.44;6095098;28;20256;-70
2023/04/10 00:21:18;;;;;;;49.23;17.90;;;;;;;5.07;100.00;101859.31;6073017;28;20068;-72
2023/04/10 00:24:13;;;;;;;48.87;17.67;;;;;;;4.79;99.33;101859.94;6071191;28;20034;-72
2023/04/10 00:27:08;;;;;;;44.77;17.97;;;;;;;4.39;99.78;101857.69;6072711;28;20446;-72
2023/04/10 00:30:04;;;;;;;46.90;18.17;;;;;;;4.62;100.00;101863.44;6072762;28;20049;-71
2023/04/10 00:33:00;;;;;;;47.13;16.25;;;;;;;4.90;100.00;101868.09;6073689;28;20029;-71
2023/04/10 00:35:55;;;;;;;49.90;18.30;;;;;;;4.76;100.00;101867.97;6071929;28;20080;-73
2023/04/10 00:38:50;;;;;;;52.57;18.83;;;;;;;4.68;100.00;101865.75;6071758;28;20136;-72
2023/04/10 00:41:46;;;;;;;46.40;17.53;;;;;;;4.63;100.00;101849.38;6072017;28;20037;-71
2023/04/10 00:44:41;;;;;;;40.93;16.70;;;;;;;4.64;100.00;101843.22;6071544;28;20268;-71
2023/04/10 00:47:36;;;;;;;46.33;18.50;;;;;;;4.75;100.00;101832.13;6075578;28;20493;-72
2023/04/10 00:50:32;;;;;;;48.08;18.60;;;;;;;4.78;100.00;101847.75;6076617;28;20029;-73
2023/04/10 00:53:27;;;;;;;46.87;17.77;;;;;;;4.59;100.00;101837.31;6075468;28;20037;-72
2023/04/10 00:56:23;;;;;;;45.50;17.20;;;;;;;4.36;100.00;101819.31;6076132;28;20128;-72
2023/04/10 00:59:19;;;;;;;47.50;17.38;;;;;;;4.36;100.00;101834.19;6075755;28;20167;-71
2023/04/10 01:02:14;;;;;;;44.50;16.20;;;;;;;4.03;100.00;101826.25;6091043;28;20048;-71
2023/04/10 01:05:11;;;;;;;42.37;16.77;;;;;;;4.01;100.00;101828.13;6074915;28;20045;-72
2023/04/10 01:08:40;;;;;;;41.55;15.85;;;;;;;4.05;100.00;101834.94;6058229;28;20105;-71
2023/04/10 01:11:51;;;;;;;46.40;17.55;;;;;;;3.89;100.00;101818.22;6075458;28;20026;-69
2023/04/10 01:14:54;;;;;;;43.55;16.05;;;;;;;3.74;100.00;101819.00;6066430;28;20033;-71
2023/04/10 01:18:15;;;;;;;44.00;16.17;;;;;;;3.77;100.00;101829.34;6058174;28;20048;-70
2023/04/10 01:21:13;;;;;;;45.75;16.83;;;;;;;3.76;100.00;101831.09;6081504;28;20031;-71
2023/04/10 01:24:41;;;;;;;34.38;13.90;;;;;;;3.89;100.00;101818.22;6075102;28;20524;-71
2023/04/10 01:28:00;;;;;;;33.58;12.75;;;;;;;3.97;100.00;101837.06;6057706;28;20036;-71
2023/04/10 01:31:00;;;;;;;43.88;15.60;;;;;;;3.95;100.00;101817.94;6057751;28;20087;-70
2023/04/10 01:34:04;;;;;;;34.70;14.43;;;;;;;4.28;100.00;101849.50;6092298;28;20083;-70
2023/04/10 01:37:01;;;;;;;30.92;13.50;;;;;;;4.01;100.00;101830.75;6075646;28;20029;-70
2023/04/10 01:40:02;;;;;;;38.60;15.15;;;;;;;3.63;100.00;101843.13;6074664;28;20029;-71
2023/04/10 01:42:59;;;;;;;34.92;14.30;;;;;;;3.49;100.00;101850.81;6057792;28;20044;-71
2023/04/10 01:45:56;;;;;;;34.35;13.85;;;;;;;3.98;100.00;101854.50;6073817;28;20049;-71
2023/04/10 01:48:52;;;;;;;34.47;14.60;;;;;;;3.78;100.00;101833.69;6057645;28;20056;-70
2023/04/10 01:51:48;;;;;;;39.72;15.50;;;;;;;3.71;100.00;101850.63;6056226;28;20377;-72
2023/04/10 01:54:47;;;;;;;38.60;14.50;;;;;;;3.57;100.00;101827.69;6056932;28;20041;-71
2023/04/10 01:57:43;;;;;;;38.10;14.57;;;;;;;3.79;100.00;101848.47;6061380;28;20033;-70
2023/04/10 02:00:41;;;;;;;37.72;15.02;;;;;;;3.83;100.00;101839.53;6075665;28;20633;-70
2023/04/10 02:03:37;;;;;;;39.63;14.52;;;;;;;3.90;100.00;101847.03;6074407;28;20041;-69
2023/04/10 02:06:41;;;;;;;40.53;16.30;;;;;;;3.92;100.00;101833.81;6074787;28;20399;-71
2023/04/10 02:10:00;;;;;;;39.25;15.55;;;;;;;3.95;100.00;101837.16;6074525;28;20025;-72
2023/04/10 02:13:00;;;;;;;43.20;16.05;;;;;;;3.92;100.00;101831.19;6056953;28;20458;-70
2023/04/10 02:15:57;;;;;;;38.65;15.00;;;;;;;3.95;100.00;101817.94;6056540;28;20030;-72
2023/04/10 02:18:53;;;;;;;41.28;16.13;;;;;;;3.91;100.00;101812.00;6089917;28;20120;-71
2023/04/10 02:21:50;;;;;;;43.13;16.25;;;;;;;4.04;100.00;101823.56;6074846;28;20527;-72
2023/04/10 02:24:45;;;;;;;41.22;15.93;;;;;;;3.89;100.00;101805.97;6056211;28;20056;-70
2023/04/10 02:27:41;;;;;;;47.45;16.65;;;;;;;3.96;100.00;101803.91;6073755;28;20029;-70
2023/04/10 02:30:38;;;;;;;42.08;16.33;;;;;;;3.98;100.00;101802.03;6074409;28;20049;-71
2023/04/10 02:33:33;;;;;;;44.28;16.90;;;;;;;4.00;99.72;101800.16;6073106;28;20108;-71
2023/04/10 02:36:28;;;;;;;39.57;14.30;;;;;;;3.98;99.70;101794.16;6074867;28;20083;-70
2023/04/10 02:39:24;;;;;;;43.47;15.63;;;;;;;3.99;98.93;101804.59;6087220;28;20034;-69
2023/04/10 02:42:19;;;;;;;39.92;14.10;;;;;;;3.99;99.73;101798.50;6078685;28;20042;-70
2023/04/10 02:45:15;;;;;;;40.35;13.93;;;;;;;4.07;98.80;101806.81;6073489;28;20394;-70
2023/04/10 02:48:10;;;;;;;37.88;13.70;;;;;;;4.00;99.07;101800.16;6073713;28;20040;-70
2023/04/10 02:51:06;;;;;;;35.30;13.63;;;;;;;4.04;99.10;101791.22;6073904;28;20044;-71
2023/04/10 02:54:01;;;;;;;39.25;14.77;;;;;;;4.06;98.36;101790.22;6072820;28;20121;-70
2023/04/10 02:56:57;;;;;;;35.95;13.50;;;;;;;4.05;98.29;101782.44;6076762;28;20355;-69
2023/04/10 02:59:52;;;;;;;32.15;12.82;;;;;;;4.13;98.59;101788.16;6073777;28;20052;-69
2023/04/10 03:02:47;;;;;;;36.97;14.83;;;;;;;4.15;98.46;101783.66;6073038;28;20049;-69
2023/04/10 03:05:45;;;;;;;40.33;15.63;;;;;;;4.09;98.29;101783.97;6073021;28;20449;-70
2023/04/10 03:08:41;;;;;;;39.60;14.63;;;;;;;4.01;98.50;101787.00;6072978;28;20022;-70
2023/04/10 03:11:36;;;;;;;42.53;14.03;;;;;;;3.99;98.42;101793.25;6072720;28;20419;-70
2023/04/10 03:14:31;;;;;;;37.93;15.07;;;;;;;3.85;98.78;101772.97;6072844;28;20150;-72
2023/04/10 03:17:26;;;;;;;42.57;16.30;;;;;;;3.89;99.35;101781.50;6073168;28;20032;-73
2023/04/10 03:20:22;;;;;;;44.77;16.03;;;;;;;3.90;99.61;101772.72;6073209;28;20030;-71
2023/04/10 03:23:17;;;;;;;36.87;14.23;;;;;;;3.95;98.94;101770.69;6072643;28;20037;-69
2023/04/10 03:26:12;;;;;;;38.80;14.50;;;;;;;3.83;99.19;101756.41;6073264;28;20074;-70
2023/04/10 03:29:08;;;;;;;38.67;13.63;;;;;;;3.80;98.90;101755.75;6073117;28;20029;-72
2023/04/10 03:32:03;;;;;;;39.43;14.87;;;;;;;3.79;98.70;101754.03;6072323;28;20386;-72
2023/04/10 03:34:58;;;;;;;37.58;13.98;;;;;;;3.88;99.30;101769.31;6072053;28;20030;-71
2023/04/10 03:37:54;;;;;;;40.13;14.93;;;;;;;3.83;99.15;101761.66;6075978;28;20029;-70
2023/04/10 03:40:49;;;;;;;34.70;13.60;;;;;;;3.82;98.98;101769.63;6072413;28;20045;-71
2023/04/10 03:43:45;;;;;;;37.97;15.95;;;;;;;3.73;98.95;101752.56;6072437;28;20036;-70
2023/04/10 03:46:40;;;;;;;41.75;13.88;;;;;;;3.71;98.48;101758.81;6072663;28;20076;-72
2023/04/10 03:49:35;;;;;;;32.10;14.13;;;;;;;3.71;99.01;101753.56;6072972;28;20037;-71
2023/04/10 03:52:30;;;;;;;41.27;15.30;;;;;;;3.69;98.92;101760.69;6072569;28;20037;-71
2023/04/10 03:55:26;;;;;;;36.20;13.70;;;;;;;3.58;99.00;101750.72;6072068;28;20041;-72
2023/04/10 03:58:21;;;;;;;34.63;14.25;;;;;;;3.51;99.46;101739.69;6075376;28;20565;-71
2023/04/10 04:01:17;;;;;;;41.40;13.57;;;;;;;3.55;100.00;101745.63;6072614;28;20037;-71
2023/04/10 04:04:12;;;;;;;32.60;13.67;;;;;;;3.55;99.30;101743.88;6072441;28;20047;-71
2023/04/10 04:07:07;;;;;;;38.23;15.53;;;;;;;3.61;99.55;101740.91;6087395;28;20044;-71
2023/04/10 04:10:03;;;;;;;36.75;15.75;;;;;;;3.81;98.58;101752.19;6072262;28;20041;-72
2023/04/10 04:12:58;;;;;;;39.40;14.30;;;;;;;3.79;98.79;101764.53;6072249;28;20041;-71
2023/04/10 04:15:54;;;;;;;42.20;14.27;;;;;;;3.77;98.29;101746.25;6071853;28;20529;-72
2023/04/10 04:18:49;;;;;;;33.92;13.73;;;;;;;3.75;97.90;101747.25;6072499;28;20047;-71
2023/04/10 04:21:44;;;;;;;35.42;13.85;;;;;;;3.80;97.42;101763.63;6075022;28;20078;-72
2023/04/10 04:24:40;;;;;;;35.37;13.77;;;;;;;3.75;97.46;101763.00;6076695;28;20611;-71
2023/04/10 04:27:35;;;;;;;33.50;13.40;;;;;;;3.76;98.21;101760.28;6076567;28;20033;-70
2023/04/10 04:30:30;;;;;;;31.77;12.30;;;;;;;3.75;97.73;101755.97;6076885;28;20031;-71
2023/04/10 04:33:25;;;;;;;32.43;12.10;;;;;;;3.75;98.28;101752.50;6075880;28;20034;-71
2023/04/10 04:36:21;;;;;;;38.47;14.33;;;;;;;3.70;98.24;101733.50;6079494;28;20037;-72
2023/04/10 04:39:16;;;;;;;36.37;14.53;;;;;;;3.85;97.90;101748.50;6076459;28;20389;-72
2023/04/10 04:42:11;;;;;;;33.00;13.07;;;;;;;3.91;97.15;101738.53;6076722;28;20029;-73
2023/04/10 04:45:07;;;;;;;32.77;12.83;;;;;;;3.97;96.25;101742.59;6075978;28;20039;-71
2023/04/10 04:48:02;;;;;;;36.70;13.40;;;;;;;4.14;95.95;101750.47;6076286;28;20037;-71
2023/04/10 04:50:58;;;;;;;29.93;12.73;;;;;;;4.11;96.10;101742.75;6076395;28;20044;-72
2023/04/10 04:53:53;;;;;;;31.53;12.43;;;;;;;4.15;95.91;101744.28;6075934;28;20036;-72
2023/04/10 04:56:48;;;;;;;34.53;13.73;;;;;;;4.18;96.00;101741.50;6079652;28;20037;-71
2023/04/10 04:59:44;;;;;;;30.13;12.57;;;;;;;4.27;95.37;101751.50;6094926;28;20026;-71
2023/04/10 05:02:39;;;;;;;28.47;12.13;;;;;;;4.33;94.95;101751.19;6083453;28;20044;-72
2023/04/10 05:05:34;;;;;;;30.10;12.00;;;;;;;4.42;94.11;101745.47;6075280;28;20033;-71
2023/04/10 05:08:30;;;;;;;21.60;9.07;;;;;;;4.49;93.32;101749.47;6075739;28;20580;-72
2023/04/10 05:11:25;;;;;;;33.00;13.20;;;;;;;4.54;93.87;101747.44;6075699;28;20033;-71
2023/04/10 05:14:21;;;;;;;30.97;13.67;;;;;;;4.56;92.64;101736.84;6074751;28;20048;-72
2023/04/10 05:17:16;;;;;;;27.70;10.82;;;;;;;4.62;92.36;101742.59;6075675;28;20030;-70
2023/04/10 05:20:11;;;;;;;25.50;11.57;;;;;;;4.67;92.79;101758.16;6075542;28;20037;-71
2023/04/10 05:23:06;;;;;;;29.00;12.30;;;;;;;4.62;93.25;101742.59;6075649;28;20040;-71
2023/04/10 05:26:02;;;;;;;30.77;12.90;;;;;;;4.77;93.08;101768.06;6075126;28;20030;-69
2023/04/10 05:28:57;;;;;;;30.80;12.10;;;;;;;4.86;92.78;101755.34;6075518;28;20092;-71
2023/04/10 05:31:52;;;;;;;28.37;12.07;;;;;;;5.07;92.06;101735.78;6073566;28;20088;-71
2023/04/10 05:34:48;;;;;;;28.40;12.80;;;;;;;5.23;90.74;101733.97;6075530;28;20039;-71
2023/04/10 05:37:43;;;;;;;29.83;12.20;;;;;;;5.34;90.50;101747.34;6075463;28;20033;-71
2023/04/10 05:40:38;;;;;;;31.97;13.30;;;;;;;5.54;89.25;101754.13;6075155;28;20306;-72
2023/04/10 05:43:34;;;;;;;31.03;12.70;;;;;;;5.60;89.52;101754.59;6075061;28;20041;-70
2023/04/10 05:46:29;;;;;;;27.52;11.45;;;;;;;6.17;88.33;101752.16;6075297;28;20038;-72
2023/04/10 05:49:24;;;;;;;29.33;12.83;;;;;;;5.98;87.67;101733.94;6074988;28;20470;-72
2023/04/10 05:52:20;;;;;;;26.73;11.53;;;;;;;6.09;87.02;101738.59;6074551;28;20048;-71
2023/04/10 05:55:15;;;;;;;26.77;11.53;;;;;;;6.15;86.83;101739.06;6074306;28;20037;-72
2023/04/10 05:58:10;;;;;;;29.52;12.35;;;;;;;6.41;86.26;101754.13;6075007;28;20135;-72
2023/04/10 06:01:06;;;;;;;25.67;12.57;;;;;;;6.67;84.96;101749.03;6074870;28;20044;-72
2023/04/10 06:04:01;;;;;;;26.52;10.60;;;;;;;6.70;84.96;101762.88;6074199;28;20478;-73
2023/04/10 06:06:57;;;;;;;29.13;11.47;;;;;;;6.83;84.64;101747.97;6073680;28;20403;-72
2023/04/10 06:09:52;;;;;;;26.03;11.27;;;;;;;7.16;82.69;101748.47;6074723;28;20045;-70
2023/04/10 06:12:47;;;;;;;27.13;12.53;;;;;;;7.09;82.39;101756.88;6074687;28;20044;-71
2023/04/10 06:15:42;;;;;;;26.03;10.90;;;;;;;7.37;81.88;101750.66;6073805;28;20029;-71
2023/04/10 06:18:38;;;;;;;28.00;11.10;;;;;;;7.67;82.05;101756.56;6074345;28;20433;-72
2023/04/10 06:21:33;;;;;;;27.30;10.30;;;;;;;7.62;81.08;101748.97;6074565;28;20284;-71
2023/04/10 06:24:30;;;;;;;27.80;11.63;;;;;;;7.68;79.83;101748.56;6073139;28;20087;-69
2023/04/10 06:27:26;;;;;;;27.05;11.55;;;;;;;7.79;80.52;101738.13;6074567;28;20021;-72
2023/04/10 06:30:21;;;;;;;28.25;12.52;;;;;;;7.87;78.90;101734.97;6073688;28;20437;-73
2023/04/10 06:33:16;;;;;;;25.17;11.10;;;;;;;7.91;78.14;101730.34;6073881;28;20116;-70
2023/04/10 06:36:12;;;;;;;24.43;10.83;;;;;;;7.98;78.51;101723.66;6076987;28;20048;-71
2023/04/10 06:39:07;;;;;;;27.73;11.63;;;;;;;7.95;78.15;101727.38;6079129;28;20460;-71
2023/04/10 06:42:03;;;;;;;23.77;11.68;;;;;;;7.95;78.78;101729.16;6074206;28;20318;-71
2023/04/10 06:44:59;;;;;;;24.05;10.88;;;;;;;8.05;78.63;101738.13;6079418;28;20117;-72
2023/04/10 06:47:54;;;;;;;20.00;9.13;;;;;;;8.22;78.50;101725.47;6073532;28;20398;-71
2023/04/10 06:50:50;;;;;;;23.03;11.97;;;;;;;8.40;77.30;101717.25;6073358;28;20044;-72
2023/04/10 06:53:45;;;;;;;27.77;12.47;;;;;;;8.26;77.59;101711.09;6071696;28;20029;-71
2023/04/10 06:56:40;;;;;;;25.17;11.13;;;;;;;8.36;77.86;101722.75;6073546;28;20056;-71
2023/04/10 06:59:35;;;;;;;24.67;11.33;;;;;;;8.53;77.95;101720.72;6073882;28;20482;-71
2023/04/10 07:02:31;;;;;;;24.13;10.90;;;;;;;8.64;76.90;101704.94;6073447;28;20034;-72
2023/04/10 07:05:26;;;;;;;23.43;11.23;;;;;;;8.79;76.26;101709.13;6072918;28;20036;-72
2023/04/10 07:08:21;;;;;;;20.77;9.47;;;;;;;8.93;76.20;101706.34;6074983;28;20482;-70
2023/04/10 07:11:17;;;;;;;23.90;11.30;;;;;;;9.11;74.92;101699.69;6083469;28;20347;-72
2023/04/10 07:14:12;;;;;;;23.92;10.35;;;;;;;9.40;73.80;101703.69;6073304;28;20048;-71
2023/04/10 07:17:08;;;;;;;26.90;11.20;;;;;;;9.48;72.96;101701.31;6089461;28;20045;-71
2023/04/10 07:20:03;;;;;;;23.27;9.52;;;;;;;9.65;73.64;101688.63;6085794;28;20097;-70
2023/04/10 07:22:59;;;;;;;22.35;9.43;;;;;;;9.80;71.69;101695.41;6093023;28;20050;-71
2023/04/10 07:25:55;;;;;;;19.63;8.65;;;;;;;10.14;70.03;101702.47;6083573;28;20091;-71
2023/04/10 07:28:50;;;;;;;22.02;10.13;;;;;;;10.64;68.05;101693.19;6072921;28;20069;-71
2023/04/10 07:31:45;;;;;;;22.30;10.87;;;;;;;10.70;65.81;101690.91;6072584;28;20104;-70
2023/04/10 07:34:41;;;;;;;19.77;8.90;;;;;;;10.58;65.92;101680.41;6054453;28;20306;-71
2023/04/10 07:37:38;;;;;;;22.47;10.67;;;;;;;10.51;65.27;101693.34;6072352;28;20120;-73
2023/04/10 07:40:33;;;;;;;19.85;9.57;;;;;;;10.40;64.97;101682.72;6072582;28;20033;-72
2023/04/10 07:43:29;;;;;;;21.30;9.87;;;;;;;10.55;65.21;101689.47;6071989;28;20358;-72
2023/04/10 07:46:25;;;;;;;23.10;9.87;;;;;;;10.89;64.55;101681.47;6072094;28;20120;-73
2023/04/10 07:49:20;;;;;;;21.45;9.77;;;;;;;10.92;64.11;101670.59;6071844;28;20685;-70
2023/04/10 07:52:16;;;;;;;19.20;8.93;;;;;;;11.02;64.24;101663.56;6087441;28;20030;-73
2023/04/10 07:55:11;;;;;;;20.57;10.03;;;;;;;11.18;63.82;101671.94;6072541;28;20082;-71
2023/04/10 07:58:06;;;;;;;22.10;9.37;;;;;;;11.23;63.20;101662.63;6077215;28;20048;-71
2023/04/10 08:01:01;;;;;;;23.20;9.23;;;;;;;11.46;63.29;101673.16;6077285;28;20026;-71
2023/04/10 08:03:57;;;;;;;20.07;10.63;;;;;;;11.55;63.25;101667.09;6076485;28;20033;-73
2023/04/10 08:06:52;;;;;;;21.57;9.87;;;;;;;11.80;62.44;101656.09;6077278;28;20044;-71
2023/04/10 08:09:47;;;;;;;20.23;10.20;;;;;;;12.02;61.72;101655.09;6077703;28;20446;-71
2023/04/10 08:12:43;;;;;;;18.93;9.90;;;;;;;12.32;60.01;101655.09;6081129;28;20044;-72
2023/04/10 08:15:38;;;;;;;23.10;10.23;;;;;;;12.55;59.32;101643.28;6077759;28;20037;-71
2023/04/10 08:18:33;;;;;;;20.93;10.20;;;;;;;12.66;59.17;101645.84;6076161;28;20361;-70
2023/04/10 08:21:30;;;;;;;17.97;8.37;;;;;;;12.50;59.49;101642.84;6076837;28;20037;-71
2023/04/10 08:24:25;;;;;;;16.48;8.32;;;;;;;12.90;58.27;101640.97;6075820;28;20200;-71
2023/04/10 08:27:21;;;;;;;19.47;10.27;;;;;;;13.02;58.36;101637.19;6076902;28;20030;-72
2023/04/10 08:30:16;;;;;;;17.33;8.47;;;;;;;13.01;56.98;101616.88;6076485;28;20064;-72
2023/04/10 08:33:11;;;;;;;21.53;9.10;;;;;;;13.34;57.10;101626.31;6076902;28;20291;-73
2023/04/10 08:36:11;;;;;;;19.10;9.80;;;;;;;13.35;56.53;101624.47;6089180;28;20034;-72
2023/04/10 08:39:06;;;;;;;19.15;8.65;;;;;;;13.53;56.01;101604.94;6076757;28;20485;-71
2023/04/10 08:42:02;;;;;;;18.57;9.20;;;;;;;13.83;54.68;101629.72;6076592;28;20038;-72
2023/04/10 08:44:58;;;;;;;16.33;9.15;;;;;;;14.17;53.00;101621.03;6075873;28;20072;-71
2023/04/10 08:47:55;;;;;;;16.27;8.02;;;;;;;14.06;52.16;101618.56;6079602;28;20025;-70
2023/04/10 08:50:50;;;;;;;14.68;8.20;;;;;;;14.23;52.05;101620.47;6061983;28;20038;-73
2023/04/10 08:53:50;;;;;;;15.40;8.65;;;;;;;14.34;52.77;101611.44;6075090;28;20095;-72
2023/04/10 08:56:50;;;;;;;19.13;8.77;;;;;;;14.14;53.14;101607.16;6076140;28;20043;-71
2023/04/10 08:59:46;;;;;;;15.50;7.90;;;;;;;14.56;51.00;101596.84;6076069;28;20048;-74
2023/04/10 09:02:42;;;;;;;17.50;8.40;;;;;;;14.34;51.95;101594.59;6074945;28;20033;-73
2023/04/10 09:05:37;;;;;;;14.32;6.88;;;;;;;14.83;50.49;101603.00;6074927;28;20044;-73
2023/04/10 09:08:33;;;;;;;15.23;7.17;;;;;;;15.37;49.71;101591.28;6075790;28;20025;-72
2023/04/10 09:11:59;;;;;;;12.98;7.30;;;;;;;14.84;48.88;101598.47;6075346;28;20064;-72
2023/04/10 09:14:55;;;;;;;13.32;8.07;;;;;;;14.56;48.45;101584.34;6073237;28;20533;-73
2023/04/10 09:18:09;;;;;;;12.85;6.53;;;;;;;15.12;47.81;101575.19;6072365;28;20112;-71
2023/04/10 09:21:09;;;;;;;11.98;6.43;;;;;;;15.10;47.59;101567.34;6073076;28;20567;-72
2023/04/10 09:24:04;;;;;;;;;;;;;;;14.98;48.08;101583.75;6069337;28;20095;-69
2023/04/10 09:27:00;;;;;;;13.07;7.43;;;;;;;15.26;48.04;101561.28;6072435;28;19917;-72
2023/04/10 09:29:55;;;;;;;12.13;6.00;;;;;;;15.87;46.44;101571.94;6072439;28;20037;-73
2023/04/10 09:32:50;;;;;;;11.33;6.53;;;;;;;15.79;46.76;101562.00;6078934;28;20112;-71
2023/04/10 09:35:46;;;;;;;13.17;6.33;;;;;;;15.62;46.45;101556.72;6076429;28;20383;-72
2023/04/10 09:38:41;;;;;;;13.63;7.38;;;;;;;15.90;46.43;101539.47;6075836;28;20383;-71
2023/04/10 09:41:51;;;;;;;12.47;6.67;;;;;;;15.81;46.59;101537.78;6095672;28;20034;-73
2023/04/10 09:44:46;;;;;;;12.98;6.78;;;;;;;16.09;47.06;101540.06;6081000;28;20444;-71
2023/04/10 09:47:42;;;;;;;13.68;7.50;;;;;;;16.07;46.71;101536.72;6073058;28;20060;-72
2023/04/10 09:50:39;;;;;;;17.57;8.27;;;;;;;15.68;48.09;101532.84;6073999;28;20044;-72
2023/04/10 09:53:47;;;;;;;16.83;8.32;;;;;;;15.66;48.23;101523.31;6074750;28;20041;-71
2023/04/10 09:56:44;;;;;;;15.85;8.35;;;;;;;15.85;47.71;101502.53;6075154;28;20032;-72
2023/04/10 09:59:43;;;;;;;15.35;7.60;;;;;;;16.18;47.50;101506.16;6074904;28;20071;-71
2023/04/10 10:02:38;;;;;;;14.75;7.20;;;;;;;16.28;47.28;101504.16;6074822;28;20038;-72
2023/04/10 10:05:52;;;;;;;14.80;7.82;;;;;;;16.10;46.73;101482.03;6073438;28;20029;-70
2023/04/10 10:08:48;;;;;;;16.75;8.27;;;;;;;15.92;46.82;101475.97;6090235;28;20121;-72
2023/04/10 10:11:43;;;;;;;14.38;8.52;;;;;;;15.97;46.83;101460.28;6089815;28;20485;-70
2023/04/10 10:14:56;;;;;;;15.53;8.40;;;;;;;16.02;46.68;101466.81;6080874;28;20044;-70
2023/04/10 10:18:03;;;;;;;17.70;8.25;;;;;;;16.17;46.73;101467.00;6089063;28;20059;-71
2023/04/10 10:21:00;;;;;;;13.95;7.32;;;;;;;16.10;47.13;101460.63;6056431;28;20038;-70
2023/04/10 10:23:57;;;;;;;15.63;8.20;;;;;;;16.08;47.44;101446.59;6088936;28;20394;-71
2023/04/10 10:26:54;;;;;;;14.75;7.43;;;;;;;16.38;46.48;101437.09;6056230;28;20527;-71
2023/04/10 10:29:52;;;;;;;16.48;9.75;;;;;;;16.45;46.16;101433.59;6073620;28;20037;-73
2023/04/10 10:32:48;;;;;;;17.45;8.70;;;;;;;16.36;46.34;101429.22;6073723;28;20030;-72
2023/04/10 10:35:44;;;;;;;16.10;8.18;;;;;;;16.39;45.68;101428.91;6073412;28;20040;-72
2023/04/10 10:38:50;;;;;;;14.35;8.13;;;;;;;16.37;45.88;101411.31;6088591;28;20037;-74
2023/04/10 10:41:56;;;;;;;13.80;7.18;;;;;;;16.77;45.75;101413.22;6056439;28;20462;-74
2023/04/10 10:45:00;;;;;;;13.70;7.30;;;;;;;16.68;44.83;101417.75;6056009;28;20393;-71
2023/04/10 10:47:56;;;;;;;12.80;6.60;;;;;;;16.97;43.84;101395.75;6056858;28;20038;-71
2023/04/10 10:50:59;;;;;;;14.85;8.32;;;;;;;16.51;45.37;101411.50;6074219;28;20033;-73
2023/04/10 10:53:54;;;;;;;11.43;6.85;;;;;;;16.71;44.82;101405.84;6072673;28;20513;-71
2023/04/10 10:56:49;;;;;;;13.20;7.77;;;;;;;16.73;43.90;101387.75;6073322;28;20030;-73
2023/04/10 10:59:44;;;;;;;14.23;7.40;;;;;;;16.76;43.50;101395.47;6073725;28;20036;-74
2023/04/10 11:02:40;;;;;;;13.27;7.27;;;;;;;16.44;44.65;101372.19;6074037;28;20112;-72
2023/04/10 11:05:52;;;;;;;13.13;7.00;;;;;;;16.97;43.75;101374.31;6072106;28;20052;-72
2023/04/10 11:08:51;;;;;;;12.50;6.53;;;;;;;16.88;43.76;101364.63;6068511;28;20291;-72
2023/04/10 11:12:06;;;;;;;13.07;7.13;;;;;;;16.70;43.90;101372.88;6073828;28;20029;-72
2023/04/10 11:15:03;;;;;;;12.93;6.97;;;;;;;17.28;42.32;101351.13;6072657;28;20426;-72
2023/04/10 11:17:59;;;;;;;12.88;6.40;;;;;;;17.12;42.83;101351.19;6073692;28;20031;-73
2023/04/10 11:21:11;;;;;;;11.30;6.40;;;;;;;17.02;42.29;101319.19;6073588;28;20478;-71
2023/04/10 11:24:06;;;;;;;14.02;7.35;;;;;;;17.11;42.09;101328.06;6060672;28;20079;-72
2023/04/10 11:27:01;;;;;;;13.70;6.28;;;;;;;16.98;42.52;101317.03;6071360;28;20030;-71
2023/04/10 11:29:57;;;;;;;11.17;6.10;;;;;;;16.94;42.32;101307.66;6073263;28;20116;-72
2023/04/10 11:32:53;;;;;;;13.13;6.57;;;;;;;17.16;41.51;101306.91;6073153;28;20116;-71
2023/04/10 11:35:48;;;;;;;10.43;5.35;;;;;;;17.38;41.71;101287.38;6072300;28;20669;-71
2023/04/10 11:39:04;;;;;;;10.13;4.97;;;;;;;17.77;40.82;101288.16;6087777;28;20056;-72
2023/04/10 11:42:00;;;;;;;8.25;4.78;;;;;;;18.23;40.52;101272.88;6061868;28;20343;-72
2023/04/10 11:44:56;;;;;;;10.60;5.00;;;;;;;18.05;39.72;101255.41;6072642;28;20393;-72
2023/04/10 11:47:52;;;;;;;10.07;5.03;;;;;;;17.88;38.46;101261.94;6072559;28;20036;-72
2023/04/10 11:50:47;;;;;;;9.35;5.05;;;;;;;17.84;39.67;101256.91;6072010;28;20048;-72
2023/04/10 11:53:42;;;;;;;7.53;4.50;;;;;;;17.68;40.25;101232.06;6071382;28;20033;-72
2023/04/10 11:57:08;;;;;;;8.23;3.83;;;;;;;17.96;39.43;101251.97;6072690;28;20029;-71
2023/04/10 12:00:04;;;;;;;8.05;4.22;;;;;;;17.99;37.41;101242.72;6066840;28;20036;-71
2023/04/10 12:02:59;;;;;;;7.93;4.40;;;;;;;18.10;37.03;101223.50;6084738;28;20037;-72
2023/04/10 12:05:55;;;;;;;6.90;3.55;;;;;;;18.32;37.56;101209.16;6072339;28;20522;-73
2023/04/10 12:08:50;;;;;;;5.40;3.57;;;;;;;17.95;35.59;101193.09;6072668;28;20068;-72
2023/04/10 12:11:50;;;;;;;5.07;2.73;;;;;;;18.37;35.54;101210.28;6072392;28;20037;-73
2023/04/10 12:14:46;;;;;;;5.88;3.03;;;;;;;18.79;34.10;101188.16;6072115;28;20030;-72
2023/04/10 12:17:42;;;;;;;4.93;3.20;;;;;;;18.80;33.56;101195.22;6072919;28;20060;-72
2023/04/10 12:20:37;;;;;;;5.55;2.92;;;;;;;18.62;33.00;101181.31;6087865;28;20494;-71
2023/04/10 12:23:35;;;;;;;4.93;2.97;;;;;;;18.53;32.12;101182.44;6072315;28;20037;-72
2023/04/10 12:26:31;;;;;;;4.90;2.50;;;;;;;18.58;31.99;101185.41;6072697;28;20046;-72
2023/04/10 12:29:26;;;;;;;4.33;1.70;;;;;;;18.58;30.63;101179.19;6072566;28;20378;-72
2023/04/10 12:32:23;;;;;;;3.75;2.22;;;;;;;18.77;30.50;101181.31;6072896;28;20609;-72
2023/04/10 12:35:18;;;;;;;4.38;2.33;;;;;;;18.41;30.88;101176.66;6070808;28;20053;-71
2023/04/10 12:38:13;;;;;;;3.70;2.22;;;;;;;18.71;30.94;101157.84;6054834;28;20036;-72
2023/04/10 12:41:10;;;;;;;4.90;2.53;;;;;;;18.46;31.10;101186.84;6079212;28;20029;-73
2023/04/10 12:44:10;;;;;;;3.38;1.92;;;;;;;18.67;31.55;101168.13;6082853;28;20029;-73
2023/04/10 12:47:05;;;;;;;4.05;2.13;;;;;;;18.49;31.06;101156.97;6076959;28;20029;-72
2023/04/10 12:50:08;;;;;;;5.40;2.60;;;;;;;18.97;31.64;101164.38;6087041;28;20088;-72
2023/04/10 12:53:06;;;;;;;4.75;2.10;;;;;;;18.85;30.89;101155.16;6076917;28;20541;-72
2023/04/10 12:56:05;;;;;;;4.22;2.00;;;;;;;18.39;30.29;101148.34;6078279;28;20033;-72
2023/04/10 12:59:06;;;;;;;4.05;2.55;;;;;;;18.32;31.46;101147.38;6081106;28;20033;-72
2023/04/10 13:02:02;;;;;;;4.90;2.70;;;;;;;18.21;31.61;101163.97;6075748;28;20029;-72
2023/04/10 13:04:58;;;;;;;4.80;2.70;;;;;;;18.34;32.22;101145.38;6074867;28;20033;-73
2023/04/10 13:07:53;;;;;;;4.78;2.88;;;;;;;18.32;31.84;101150.91;6075492;28;20284;-71
2023/04/10 13:10:49;;;;;;;5.60;3.33;;;;;;;18.23;31.78;101130.56;6076297;28;20044;-72
2023/04/10 13:13:45;;;;;;;4.85;2.63;;;;;;;18.19;32.57;101128.41;6075599;28;20046;-72
2023/04/10 13:16:40;;;;;;;4.93;2.90;;;;;;;17.97;33.18;101115.91;6075858;28;20056;-71
2023/04/10 13:19:36;;;;;;;4.93;2.93;;;;;;;17.95;33.76;101113.41;6075916;28;20390;-72
2023/04/10 13:22:31;;;;;;;5.33;3.17;;;;;;;17.94;33.42;101108.25;6075755;28;20043;-72
2023/04/10 13:25:26;;;;;;;5.83;3.30;;;;;;;17.96;33.88;101117.78;6075398;28;20037;-72
2023/04/10 13:28:22;;;;;;;4.27;3.10;;;;;;;18.00;33.89;101111.00;6058359;28;20314;-72
2023/04/10 13:31:17;;;;;;;4.75;2.55;;;;;;;18.12;33.44;101114.06;6076162;28;20029;-71
2023/04/10 13:34:12;;;;;;;4.25;2.60;;;;;;;17.85;33.62;101092.22;6075032;28;20032;-71